createdAt,value
2022-08-28T02:38:27.092Z,7.60
2022-08-28T02:43:32.293Z,6.68
2022-08-28T02:48:39.169Z,6.57
2022-08-28T02:53:48.182Z,6.43
2022-08-28T02:58:53.926Z,6.25
2022-08-28T03:04:03.068Z,7.28
2022-08-28T03:09:11.049Z,6.55
2022-08-28T03:14:16.324Z,6.97
2022-08-28T03:19:26.756Z,7.55
2022-08-28T03:24:35.155Z,6.90
2022-08-28T03:29:40.390Z,7.00
2022-08-28T03:34:45.634Z,6.68
2022-08-28T03:39:56.875Z,6.72
2022-08-28T03:45:02.198Z,7.82
2022-08-28T03:50:10.367Z,7.28
2022-08-28T03:55:20.387Z,6.97
2022-08-28T04:00:25.618Z,7.90
2022-08-28T04:05:31.598Z,8.10
2022-08-28T04:10:42.813Z,8.70
2022-08-28T04:15:49.051Z,10.25
2022-08-28T04:21:01.601Z,9.13
2022-08-28T04:26:11.372Z,9.55
2022-08-28T04:31:16.906Z,7.88
2022-08-28T04:36:22.407Z,8.30
2022-08-28T04:41:30.749Z,8.55
2022-08-28T04:46:37.804Z,9.15
2022-08-28T04:51:43.293Z,8.60
2022-08-28T04:56:54.726Z,9.23
2022-08-28T05:02:08.032Z,9.35
2022-08-28T05:07:15.941Z,9.80
2022-08-28T05:12:24.131Z,10.40
2022-08-28T05:17:29.369Z,10.27
2022-08-28T05:22:38.994Z,9.00
2022-08-28T05:27:47.035Z,10.70
2022-08-28T05:33:05.360Z,10.07
2022-08-28T05:44:29.800Z,10.75
2022-08-28T05:49:49.729Z,9.90
2022-08-28T06:00:13.967Z,10.43
2022-08-28T06:10:53.608Z,10.55
2022-08-28T06:16:01.718Z,10.02
2022-08-28T06:21:14.789Z,9.68
2022-08-28T06:26:19.929Z,9.85
2022-08-28T06:31:33.038Z,9.43
2022-08-28T06:37:05.589Z,9.13
2022-08-28T06:42:22.775Z,8.75
2022-08-28T06:47:31.095Z,8.05
2022-08-28T06:52:36.326Z,8.13
2022-08-28T06:57:46.471Z,8.48
2022-08-28T07:02:57.079Z,7.40
2022-08-28T07:08:10.225Z,8.45
2022-08-28T07:13:15.603Z,7.40
2022-08-28T07:18:26.679Z,7.57
2022-08-28T07:23:39.364Z,7.13
2022-08-28T07:28:45.499Z,7.20
2022-08-28T07:39:12.461Z,7.03
2022-08-28T07:44:35.957Z,7.30
2022-08-28T07:49:43.959Z,6.57
2022-08-28T07:54:49.415Z,6.57
2022-08-28T07:59:54.999Z,6.70
2022-08-28T08:05:07.642Z,6.35
2022-08-28T08:10:19.842Z,6.65
2022-08-28T08:15:31.368Z,7.03
2022-08-28T08:20:39.259Z,5.95
2022-08-28T08:25:44.583Z,6.20
2022-08-28T08:30:50.042Z,6.93
2022-08-28T08:35:57.869Z,6.50
2022-08-28T08:41:04.625Z,5.95
2022-08-28T08:46:10.793Z,6.30
2022-08-28T08:51:23.467Z,6.82
2022-08-28T08:56:34.896Z,5.60
2022-08-28T09:01:43.003Z,5.25
2022-08-28T09:06:53.378Z,5.82
2022-08-28T09:12:03.453Z,6.32
2022-08-28T09:17:09.471Z,5.65
2022-08-28T09:22:17.664Z,5.55
2022-08-28T09:27:27.562Z,5.20
2022-08-28T09:32:35.134Z,5.35
2022-08-28T09:37:45.044Z,5.47
2022-08-28T09:43:16.839Z,4.90
2022-08-28T09:48:24.200Z,4.80
2022-08-28T09:53:32.473Z,4.65
2022-08-28T09:58:40.609Z,5.28
2022-08-28T10:03:51.204Z,4.85
2022-08-28T10:09:17.715Z,4.40
2022-08-28T10:14:35.177Z,4.75
2022-08-28T10:19:47.559Z,5.82
2022-08-28T10:25:07.069Z,4.30
2022-08-28T10:30:14.753Z,4.95
2022-08-28T10:35:23.075Z,4.85
2022-08-28T10:40:34.854Z,5.07
2022-08-28T10:50:48.291Z,4.88
2022-08-28T10:56:03.079Z,5.03
2022-08-28T11:01:10.578Z,4.60
2022-08-28T11:06:19.399Z,4.65
2022-08-28T11:17:01.772Z,5.90
2022-08-28T11:22:13.127Z,6.63
2022-08-28T11:27:22.857Z,5.40
2022-08-28T11:32:47.020Z,5.60
2022-08-28T11:37:54.927Z,5.47
2022-08-28T11:43:37.504Z,4.72
2022-08-28T11:48:54.229Z,5.30
2022-08-28T11:54:06.755Z,5.18
2022-08-28T11:59:46.319Z,5.30
2022-08-28T12:05:28.862Z,4.95
2022-08-28T12:28:46.367Z,5.15
2022-08-28T12:34:22.501Z,4.90
2022-08-28T12:45:07.602Z,4.20
2022-08-28T12:50:52.116Z,4.18
2022-08-28T12:56:44.684Z,5.30
2022-08-28T14:10:29.537Z,5.22
2022-08-28T14:41:32.480Z,7.38
2022-08-28T15:25:59.693Z,4.72
2022-08-28T19:13:52.413Z,5.95
2022-08-28T19:37:42.692Z,4.90
2022-08-28T19:48:42.446Z,4.80
2022-08-28T19:54:23.505Z,4.60
2022-08-28T21:20:47.210Z,4.63
2022-08-28T21:31:46.481Z,4.72
2022-08-28T21:36:54.428Z,5.30
2022-08-28T21:41:59.552Z,4.60
2022-08-28T21:47:04.743Z,4.22
2022-08-28T21:58:32.213Z,4.70
2022-08-28T22:03:37.522Z,5.25
2022-08-28T22:08:43.400Z,4.70
2022-08-28T22:13:57.023Z,4.47
2022-08-28T22:19:02.245Z,4.65
2022-08-28T22:24:08.544Z,5.05
2022-08-28T22:29:16.796Z,4.38
2022-08-28T22:40:13.837Z,4.60
2022-08-28T22:51:31.606Z,4.70
2022-08-28T22:56:36.972Z,4.32
2022-08-28T23:01:42.742Z,4.80
2022-08-28T23:06:50.656Z,4.95
2022-08-28T23:12:00.101Z,4.97
2022-08-28T23:17:05.536Z,5.32
2022-08-28T23:22:17.636Z,4.40
2022-08-28T23:27:36.111Z,4.75
2022-08-28T23:32:43.386Z,5.18
2022-08-28T23:38:00.575Z,4.95
2022-08-28T23:43:55.920Z,5.20
2022-08-28T23:49:14.451Z,6.35
2022-08-28T23:55:03.660Z,6.18
